createdAt,value
2023-04-05T00:00:27.518Z,6.25
2023-04-05T00:02:58.030Z,8.57
2023-04-05T00:05:30.615Z,7.78
2023-04-05T00:08:01.620Z,6.63
2023-04-05T00:10:29.399Z,8.93
2023-04-05T00:12:56.612Z,5.30
2023-04-05T00:15:23.726Z,5.50
2023-04-05T00:17:50.694Z,6.70
2023-04-05T00:20:17.491Z,9.77
2023-04-05T00:22:44.749Z,5.45
2023-04-05T00:25:11.999Z,6.32
2023-04-05T00:27:39.650Z,6.70
2023-04-05T00:30:07.540Z,6.07
2023-04-05T00:32:34.315Z,4.53
2023-04-05T00:35:01.304Z,7.05
2023-04-05T00:37:28.094Z,6.88
2023-04-05T00:39:57.337Z,4.90
2023-04-05T00:42:24.108Z,6.68
2023-04-05T00:44:50.910Z,5.55
2023-04-05T00:47:17.858Z,8.10
2023-04-05T00:49:44.625Z,4.90
2023-04-05T00:52:13.016Z,4.97
2023-04-05T00:54:39.768Z,6.90
2023-04-05T00:57:07.014Z,6.10
2023-04-05T00:59:33.869Z,5.30
2023-04-05T01:02:25.149Z,6.45
2023-04-05T01:05:02.438Z,6.07
2023-04-05T01:07:43.283Z,4.82
2023-04-05T01:10:13.480Z,9.52
2023-04-05T01:12:41.501Z,7.57
2023-04-05T01:15:09.147Z,5.43
2023-04-05T01:17:39.148Z,5.85
2023-04-05T01:20:13.084Z,5.57
2023-04-05T01:23:01.859Z,6.15
2023-04-05T01:25:49.753Z,5.95
2023-04-05T01:28:47.260Z,7.57
2023-04-05T01:31:55.934Z,6.13
2023-04-05T01:34:48.656Z,4.75
2023-04-05T01:37:19.162Z,6.85
2023-04-05T01:39:48.222Z,6.30
2023-04-05T01:42:15.028Z,4.95
2023-04-05T01:44:41.863Z,6.43
2023-04-05T01:47:08.682Z,5.97
2023-04-05T01:49:35.562Z,8.07
2023-04-05T01:52:02.296Z,8.90
2023-04-05T01:54:29.050Z,4.72
2023-04-05T01:56:56.675Z,6.63
2023-04-05T01:59:23.455Z,5.45
2023-04-05T02:01:51.332Z,5.32
2023-04-05T02:04:18.111Z,4.45
2023-04-05T02:06:44.856Z,8.93
2023-04-05T02:09:11.718Z,8.30
2023-04-05T02:11:38.459Z,9.65
2023-04-05T02:14:05.286Z,7.40
2023-04-05T02:16:34.635Z,4.88
2023-04-05T02:19:01.418Z,4.57
2023-04-05T02:21:28.230Z,8.23
2023-04-05T02:23:55.051Z,4.65
2023-04-05T02:26:21.865Z,5.40
2023-04-05T02:28:48.632Z,5.35
2023-04-05T02:31:15.669Z,8.00
2023-04-05T02:33:42.711Z,6.05
2023-04-05T02:36:11.894Z,7.50
2023-04-05T02:38:38.659Z,6.03
2023-04-05T02:41:11.559Z,5.70
2023-04-05T02:43:39.060Z,6.40
2023-04-05T02:46:06.228Z,7.05
2023-04-05T02:48:33.250Z,9.50
2023-04-05T02:51:00.036Z,7.07
2023-04-05T02:53:26.783Z,8.93
2023-04-05T02:55:56.647Z,6.70
2023-04-05T02:58:24.294Z,7.40
2023-04-05T03:00:54.212Z,7.25
2023-04-05T03:03:22.470Z,8.00
2023-04-05T03:05:59.065Z,4.90
2023-04-05T03:08:25.822Z,4.43
2023-04-05T03:10:52.560Z,4.03
2023-04-05T03:13:19.307Z,6.22
2023-04-05T03:15:46.072Z,6.35
2023-04-05T03:18:12.816Z,5.60
2023-04-05T03:20:40.161Z,7.55
2023-04-05T03:23:10.930Z,7.53
2023-04-05T03:25:38.421Z,6.22
2023-04-05T03:28:06.503Z,7.68
2023-04-05T03:30:33.545Z,6.38
2023-04-05T03:33:01.357Z,8.85
2023-04-05T03:35:29.273Z,5.57
2023-04-05T03:37:57.319Z,7.43
2023-04-05T03:40:24.905Z,9.35
2023-04-05T03:42:52.527Z,7.82
2023-04-05T03:45:23.771Z,10.13
2023-04-05T03:47:51.063Z,9.43
2023-04-05T03:50:17.922Z,5.40
2023-04-05T03:52:44.797Z,6.75
2023-04-05T03:55:13.342Z,5.72
2023-04-05T03:57:42.251Z,6.50
2023-04-05T04:00:19.918Z,9.25
2023-04-05T04:02:48.451Z,10.88
2023-04-05T04:05:16.758Z,6.10
2023-04-05T04:07:44.595Z,6.32
2023-04-05T04:10:13.861Z,5.85
2023-04-05T04:12:40.838Z,4.28
2023-04-05T04:15:08.080Z,8.00
2023-04-05T04:17:36.932Z,9.30
2023-04-05T04:20:11.298Z,10.48
2023-04-05T04:22:40.161Z,5.15
2023-04-05T04:25:12.483Z,9.32
2023-04-05T04:27:42.019Z,6.15
2023-04-05T04:30:14.747Z,8.10
2023-04-05T04:32:52.596Z,6.68
2023-04-05T04:35:34.629Z,5.50
2023-04-05T04:38:04.853Z,6.75
2023-04-05T04:40:41.484Z,12.73
2023-04-05T04:43:14.397Z,12.23
2023-04-05T04:45:41.703Z,11.03
2023-04-05T04:48:08.834Z,7.53
2023-04-05T04:50:36.000Z,11.55
2023-04-05T04:53:03.178Z,9.88
2023-04-05T04:55:30.349Z,9.20
2023-04-05T04:57:57.346Z,8.68
2023-04-05T05:00:24.848Z,7.78
2023-04-05T05:02:52.897Z,10.55
2023-04-05T05:05:22.753Z,12.23
2023-04-05T05:07:50.425Z,7.07
2023-04-05T05:10:17.207Z,6.05
2023-04-05T05:12:43.971Z,8.10
2023-04-05T05:15:12.215Z,9.45
2023-04-05T05:17:39.547Z,7.18
2023-04-05T05:20:11.147Z,7.53
2023-04-05T05:22:38.845Z,6.80
2023-04-05T05:25:07.312Z,6.93
2023-04-05T05:27:34.403Z,13.48
2023-04-05T05:30:01.241Z,7.05
2023-04-05T05:32:28.277Z,7.30
2023-04-05T05:34:55.172Z,8.27
2023-04-05T05:37:34.728Z,7.93
2023-04-05T05:40:01.720Z,9.55
2023-04-05T05:42:28.525Z,8.60
2023-04-05T05:44:55.305Z,6.88
2023-04-05T05:47:22.256Z,8.80
2023-04-05T05:49:49.739Z,10.00
2023-04-05T05:52:16.824Z,8.95
2023-04-05T05:54:43.577Z,8.32
2023-04-05T05:57:10.373Z,9.90
2023-04-05T05:59:37.151Z,11.18
2023-04-05T06:02:04.128Z,10.73
2023-04-05T06:04:31.181Z,11.25
2023-04-05T06:06:58.997Z,8.68
2023-04-05T06:09:25.745Z,10.77
2023-04-05T06:11:56.547Z,9.07
2023-04-05T06:14:25.240Z,15.68
2023-04-05T06:16:52.684Z,11.50
2023-04-05T06:19:19.427Z,12.65
2023-04-05T06:21:46.228Z,10.05
2023-04-05T06:24:13.046Z,10.48
2023-04-05T06:26:39.796Z,10.93
2023-04-05T06:29:06.717Z,10.73
2023-04-05T06:31:35.730Z,12.73
2023-04-05T06:34:02.660Z,14.60
2023-04-05T06:36:34.033Z,9.00
2023-04-05T06:39:01.013Z,8.60
2023-04-05T06:41:28.021Z,13.95
2023-04-05T06:43:55.978Z,15.60
2023-04-05T06:46:23.189Z,10.48
2023-04-05T06:48:51.117Z,13.65
2023-04-05T06:51:18.698Z,10.38
2023-04-05T06:53:45.671Z,15.77
2023-04-05T06:56:12.483Z,11.85
2023-04-05T06:58:39.307Z,13.40
2023-04-05T07:01:06.502Z,9.68
2023-04-05T07:03:33.988Z,11.55
2023-04-05T07:06:01.211Z,11.85
2023-04-05T07:08:31.112Z,8.25
2023-04-05T07:10:58.506Z,12.10
2023-04-05T07:13:25.821Z,9.43
2023-04-05T07:15:53.266Z,10.52
2023-04-05T07:18:20.335Z,9.77
2023-04-05T07:20:51.362Z,7.07
2023-04-05T07:23:18.290Z,11.05
2023-04-05T07:25:45.665Z,14.68
2023-04-05T07:28:12.442Z,8.73
2023-04-05T07:30:39.310Z,13.50
2023-04-05T07:33:06.182Z,9.45
2023-04-05T07:35:33.039Z,9.32
2023-04-05T07:37:59.833Z,8.30
2023-04-05T07:40:27.668Z,9.80
2023-04-05T07:42:54.699Z,7.47
2023-04-05T07:45:21.475Z,8.95
2023-04-05T07:47:48.375Z,7.65
2023-04-05T07:50:15.710Z,13.45
2023-04-05T07:52:43.017Z,11.85
2023-04-05T07:55:10.886Z,12.15
2023-04-05T07:57:37.912Z,8.07
2023-04-05T08:00:11.741Z,8.38
2023-04-05T08:02:38.552Z,7.43
2023-04-05T08:05:05.865Z,11.02
2023-04-05T08:07:32.719Z,8.05
2023-04-05T08:10:00.040Z,6.25
2023-04-05T08:12:27.213Z,6.68
2023-04-05T08:14:54.236Z,9.27
2023-04-05T08:17:21.094Z,6.18
2023-04-05T08:19:49.295Z,7.57
2023-04-05T08:22:17.762Z,7.82
2023-04-05T08:24:44.816Z,7.18
2023-04-05T08:27:12.050Z,5.53
2023-04-05T08:29:38.992Z,7.45
2023-04-05T08:32:06.174Z,7.65
2023-04-05T08:34:33.010Z,8.02
2023-04-05T08:37:00.428Z,5.90
2023-04-05T08:39:27.493Z,6.53
2023-04-05T08:42:17.274Z,7.43
2023-04-05T08:44:46.473Z,5.85
2023-04-05T08:47:18.841Z,9.75
2023-04-05T08:49:46.135Z,8.88
2023-04-05T08:52:13.148Z,10.07
2023-04-05T08:54:40.011Z,4.80
2023-04-05T08:57:08.506Z,4.53
2023-04-05T08:59:42.025Z,5.95
2023-04-05T09:02:18.652Z,7.15
2023-04-05T09:04:47.429Z,5.82
2023-04-05T09:07:14.982Z,4.35
2023-04-05T09:09:49.727Z,5.13
2023-04-05T09:12:16.771Z,7.88
2023-04-05T09:14:44.199Z,7.28
2023-04-05T09:17:11.680Z,6.90
2023-04-05T09:19:38.977Z,5.65
2023-04-05T09:22:08.109Z,3.97
2023-04-05T09:24:41.934Z,6.68
2023-04-05T09:27:18.055Z,6.57
2023-04-05T09:29:49.883Z,2.33
2023-04-05T09:32:23.348Z,4.57
2023-04-05T09:34:54.067Z,4.85
2023-04-05T09:37:22.309Z,3.00
2023-04-05T09:39:52.086Z,4.93
2023-04-05T09:42:22.956Z,7.07
2023-04-05T09:44:53.974Z,3.78
2023-04-05T09:47:25.097Z,3.35
2023-04-05T09:49:51.992Z,5.07
2023-04-05T09:52:26.988Z,3.47
2023-04-05T09:54:56.671Z,6.85
2023-04-05T09:57:29.324Z,9.23
2023-04-05T09:59:56.680Z,4.05
2023-04-05T10:02:24.131Z,2.90
2023-04-05T10:04:51.687Z,4.28
2023-04-05T10:07:19.742Z,2.88
2023-04-05T10:09:48.441Z,4.35
2023-04-05T10:12:27.118Z,4.90
2023-04-05T10:14:55.477Z,2.97
2023-04-05T10:17:31.614Z,4.82
2023-04-05T10:20:16.281Z,7.82
2023-04-05T10:22:52.161Z,4.28
2023-04-05T10:25:54.105Z,3.35
2023-04-05T10:28:36.145Z,2.50
2023-04-05T10:31:36.886Z,4.82
2023-04-05T10:34:08.830Z,2.92
2023-04-05T10:36:46.113Z,6.18
2023-04-05T10:39:24.211Z,4.20
2023-04-05T10:41:59.938Z,3.08
2023-04-05T10:44:27.206Z,3.67
2023-04-05T10:46:55.584Z,2.80
2023-04-05T10:49:29.736Z,6.00
2023-04-05T10:51:57.377Z,4.30
2023-04-05T10:54:25.153Z,3.92
2023-04-05T10:56:52.038Z,3.53
2023-04-05T10:59:20.858Z,9.18
2023-04-05T11:01:48.355Z,4.82
2023-04-05T11:04:16.189Z,5.10
2023-04-05T11:06:47.736Z,4.35
2023-04-05T11:09:18.625Z,3.92
2023-04-05T11:11:47.685Z,4.75
2023-04-05T11:14:26.742Z,5.82
2023-04-05T11:16:59.674Z,4.13
2023-04-05T11:19:48.185Z,4.05
2023-04-05T11:22:27.488Z,4.10
2023-04-05T11:25:01.885Z,5.75
2023-04-05T11:30:01.854Z,4.03
2023-04-05T11:32:45.700Z,6.55
2023-04-05T11:35:25.709Z,4.60
2023-04-05T11:38:07.923Z,5.43
2023-04-05T11:40:37.405Z,5.57
2023-04-05T11:43:12.280Z,5.57
2023-04-05T11:45:41.986Z,5.43
2023-04-05T11:48:11.470Z,5.45
2023-04-05T11:50:41.855Z,4.80
2023-04-05T11:53:16.217Z,3.58
2023-04-05T11:55:52.547Z,7.13
2023-04-05T11:58:23.695Z,5.15
2023-04-05T12:01:02.764Z,3.80
2023-04-05T12:03:30.731Z,6.05
2023-04-05T12:06:00.368Z,7.07
2023-04-05T12:08:49.957Z,6.70
2023-04-05T12:11:40.952Z,8.15
2023-04-05T12:14:08.195Z,5.82
2023-04-05T12:16:34.959Z,7.57
2023-04-05T12:19:01.744Z,6.90
2023-04-05T12:21:29.146Z,4.22
2023-04-05T12:23:56.702Z,4.80
2023-04-05T12:26:23.985Z,5.65
2023-04-05T12:28:56.665Z,5.53
2023-04-05T12:31:45.350Z,4.20
2023-04-05T12:34:14.438Z,3.08
2023-04-05T12:36:46.050Z,6.10
2023-04-05T12:39:12.903Z,4.30
2023-04-05T12:41:40.160Z,5.50
2023-04-05T12:44:14.933Z,5.65
2023-04-05T12:46:46.584Z,4.43
2023-04-05T12:49:18.496Z,3.00
2023-04-05T12:51:47.716Z,5.32
2023-04-05T12:54:23.885Z,5.60
2023-04-05T12:56:52.932Z,4.78
2023-04-05T12:59:20.586Z,5.05
2023-04-05T13:01:47.424Z,5.07
2023-04-05T13:04:16.983Z,3.92
2023-04-05T13:06:47.201Z,5.45
2023-04-05T13:09:14.435Z,4.32
2023-04-05T13:11:41.200Z,5.60
2023-04-05T13:14:08.556Z,4.18
2023-04-05T13:16:35.503Z,3.50
2023-04-05T13:19:02.386Z,3.70
2023-04-05T13:21:29.164Z,3.42
2023-04-05T13:23:55.949Z,3.92
2023-04-05T13:26:23.382Z,4.75
2023-04-05T13:28:50.205Z,3.63
2023-04-05T13:31:17.330Z,4.38
2023-04-05T13:33:44.304Z,6.65
2023-04-05T13:36:12.473Z,4.20
2023-04-05T13:38:39.805Z,6.00
2023-04-05T13:41:06.647Z,3.75
2023-04-05T13:43:33.740Z,5.20
2023-04-05T13:46:00.599Z,3.53
2023-04-05T13:48:27.399Z,4.07
2023-04-05T13:50:54.177Z,5.38
2023-04-05T13:53:20.948Z,3.95
2023-04-05T13:55:47.687Z,2.60
2023-04-05T13:58:14.589Z,4.05
2023-04-05T14:00:41.823Z,4.68
2023-04-05T14:03:09.019Z,7.28
2023-04-05T14:05:36.118Z,2.67
2023-04-05T14:08:03.033Z,2.65
2023-04-05T14:10:32.011Z,3.33
2023-04-05T14:12:58.846Z,4.90
2023-04-05T14:15:25.703Z,2.85
2023-04-05T14:17:52.576Z,3.42
2023-04-05T14:20:19.513Z,3.58
2023-04-05T14:22:46.291Z,2.65
2023-04-05T14:25:13.073Z,4.05
2023-04-05T14:27:42.220Z,4.28
2023-04-05T14:30:11.188Z,3.38
2023-04-05T14:32:38.327Z,3.75
2023-04-05T14:35:05.678Z,3.30
2023-04-05T14:37:32.419Z,2.67
2023-04-05T14:39:59.182Z,4.70
2023-04-05T14:42:34.132Z,6.75
2023-04-05T14:45:09.322Z,3.08
2023-04-05T14:47:36.338Z,5.75
2023-04-05T14:50:03.192Z,4.93
2023-04-05T14:52:30.562Z,4.10
2023-04-05T14:54:57.327Z,3.97
2023-04-05T14:57:24.096Z,5.65
2023-04-05T14:59:50.856Z,5.80
2023-04-05T15:02:17.722Z,3.83
2023-04-05T15:04:44.558Z,3.40
2023-04-05T15:07:11.341Z,3.33
2023-04-05T15:09:38.160Z,8.25
2023-04-05T15:12:06.232Z,7.30
2023-04-05T15:14:33.009Z,5.13
2023-04-05T15:16:59.863Z,6.18
2023-04-05T15:19:27.366Z,4.43
2023-04-05T15:21:54.196Z,3.97
2023-04-05T15:24:21.008Z,4.32
2023-04-05T15:26:47.796Z,5.03
2023-04-05T15:29:14.580Z,6.30
2023-04-05T15:31:41.810Z,2.70
2023-04-05T15:34:08.671Z,3.25
2023-04-05T15:36:36.172Z,5.78
2023-04-05T15:39:04.980Z,4.38
2023-04-05T15:41:34.064Z,7.07
2023-04-05T15:44:01.133Z,3.22
2023-04-05T15:46:29.170Z,6.60
2023-04-05T15:48:56.145Z,7.78
2023-04-05T15:51:23.161Z,2.90
2023-04-05T15:53:50.152Z,3.80
2023-04-05T15:56:17.968Z,6.15
2023-04-05T15:58:45.242Z,3.85
2023-04-05T16:01:12.113Z,4.13
2023-04-05T16:03:39.059Z,5.60
2023-04-05T16:06:05.991Z,2.95
2023-04-05T16:08:32.811Z,3.30
2023-04-05T16:10:59.593Z,4.20
2023-04-05T16:13:26.602Z,4.78
2023-04-05T16:15:53.430Z,5.18
2023-04-05T16:18:21.248Z,4.88
2023-04-05T16:20:48.233Z,4.95
2023-04-05T16:23:15.468Z,3.67
2023-04-05T16:25:42.508Z,4.03
2023-04-05T16:28:09.446Z,5.57
2023-04-05T16:30:36.797Z,4.85
2023-04-05T16:33:03.695Z,2.70
2023-04-05T16:35:31.246Z,3.95
2023-04-05T16:37:58.483Z,4.35
2023-04-05T16:40:25.592Z,6.38
2023-04-05T16:42:54.131Z,8.65
2023-04-05T16:45:21.479Z,3.90
2023-04-05T16:47:48.469Z,8.32
2023-04-05T16:50:15.348Z,4.20
2023-04-05T16:52:42.363Z,5.15
2023-04-05T16:55:09.735Z,3.95
2023-04-05T16:57:36.623Z,3.67
2023-04-05T17:00:05.762Z,5.25
2023-04-05T17:02:32.567Z,3.83
2023-04-05T17:04:59.375Z,3.03
2023-04-05T17:07:26.336Z,2.58
2023-04-05T17:09:53.220Z,3.53
2023-04-05T17:12:20.284Z,3.95
2023-04-05T17:14:47.034Z,2.47
2023-04-05T17:17:13.784Z,5.43
2023-04-05T17:19:40.527Z,3.97
2023-04-05T17:22:07.294Z,5.00
2023-04-05T17:24:36.103Z,6.88
2023-04-05T17:27:04.285Z,2.47
2023-04-05T17:29:31.056Z,3.83
2023-04-05T17:31:57.898Z,4.13
2023-04-05T17:34:24.883Z,8.43
2023-04-05T17:36:52.736Z,3.90
2023-04-05T17:39:19.746Z,4.38
2023-04-05T17:41:46.597Z,5.07
2023-04-05T17:44:14.801Z,6.38
2023-04-05T17:46:48.535Z,6.07
2023-04-05T17:49:21.025Z,5.68
2023-04-05T17:51:47.955Z,3.60
2023-04-05T17:54:15.439Z,4.45
2023-04-05T17:56:42.242Z,6.72
2023-04-05T17:59:09.419Z,4.85
2023-04-05T18:01:37.919Z,7.70
2023-04-05T18:04:05.724Z,5.05
2023-04-05T18:06:32.835Z,4.20
2023-04-05T18:09:00.250Z,3.25
2023-04-05T18:11:27.011Z,4.07
2023-04-05T18:13:53.830Z,6.03
2023-04-05T18:16:20.650Z,8.52
2023-04-05T18:18:47.475Z,5.78
2023-04-05T18:21:15.329Z,6.93
2023-04-05T18:23:43.175Z,7.03
2023-04-05T18:26:09.969Z,7.95
2023-04-05T18:28:36.765Z,7.68
2023-04-05T18:31:03.532Z,5.57
2023-04-05T18:33:30.321Z,6.65
2023-04-05T18:35:57.136Z,6.85
2023-04-05T18:38:23.914Z,7.20
2023-04-05T18:40:50.757Z,8.30
2023-04-05T18:43:17.701Z,8.63
2023-04-05T18:45:44.616Z,9.45
2023-04-05T18:48:11.773Z,8.10
2023-04-05T18:50:38.578Z,9.13
2023-04-05T18:53:06.761Z,9.45
2023-04-05T18:55:33.534Z,4.80
2023-04-05T18:58:00.288Z,6.80
2023-04-05T19:00:27.061Z,8.93
2023-04-05T19:02:53.871Z,8.50
2023-04-05T19:05:20.744Z,7.75
2023-04-05T19:07:47.488Z,6.28
2023-04-05T19:10:14.251Z,7.85
2023-04-05T19:12:41.391Z,7.32
2023-04-05T19:15:08.774Z,8.05
2023-04-05T19:17:35.528Z,8.02
2023-04-05T19:20:02.419Z,10.02
2023-04-05T19:22:29.196Z,6.28
2023-04-05T19:24:55.975Z,9.40
2023-04-05T19:27:22.751Z,10.18
2023-04-05T19:29:49.501Z,6.60
2023-04-05T19:32:16.302Z,12.13
2023-04-05T19:34:43.058Z,6.80
2023-04-05T19:37:09.791Z,9.30
2023-04-05T19:39:36.761Z,11.43
2023-04-05T19:42:05.184Z,12.57
2023-04-05T19:44:49.932Z,8.35
2023-04-05T19:47:21.485Z,10.13
2023-04-05T19:49:50.060Z,14.27
2023-04-05T19:52:49.027Z,12.85
2023-04-05T19:55:37.073Z,11.90
2023-04-05T19:58:09.750Z,14.15
2023-04-05T20:00:52.588Z,16.00
2023-04-05T20:03:32.662Z,19.15
2023-04-05T20:06:09.155Z,37.67
2023-04-05T20:08:42.034Z,37.33
2023-04-05T20:11:22.506Z,36.15
2023-04-05T20:13:56.374Z,31.02
2023-04-05T20:16:32.900Z,32.33
2023-04-05T20:19:06.320Z,29.17
2023-04-05T20:21:33.945Z,31.98
2023-04-05T20:24:01.478Z,31.00
2023-04-05T20:26:30.947Z,31.00
2023-04-05T20:29:00.375Z,28.45
2023-04-05T20:31:35.881Z,23.88
2023-04-05T20:34:15.232Z,27.70
2023-04-05T20:36:57.106Z,23.02
2023-04-05T20:39:24.419Z,25.92
2023-04-05T20:41:51.373Z,29.10
2023-04-05T20:44:18.425Z,22.90
2023-04-05T20:46:45.308Z,27.95
2023-04-05T20:49:12.186Z,19.13
2023-04-05T20:51:41.230Z,21.27
2023-04-05T20:54:09.566Z,20.05
2023-04-05T20:56:36.450Z,23.38
2023-04-05T20:59:03.216Z,21.05
2023-04-05T21:01:30.511Z,16.60
2023-04-05T21:03:57.587Z,21.05
2023-04-05T21:06:24.354Z,19.48
2023-04-05T21:08:51.144Z,19.48
2023-04-05T21:11:17.915Z,20.40
2023-04-05T21:13:44.686Z,18.63
2023-04-05T21:16:11.708Z,18.73
2023-04-05T21:18:38.593Z,17.90
2023-04-05T21:21:05.654Z,15.60
2023-04-05T21:23:34.264Z,13.27
2023-04-05T21:26:01.518Z,17.17
2023-04-05T21:28:28.299Z,15.23
2023-04-05T21:30:55.091Z,13.80
2023-04-05T21:33:22.289Z,15.95
2023-04-05T21:35:49.224Z,21.77
2023-04-05T21:38:16.129Z,12.98
2023-04-05T21:40:44.443Z,14.98
2023-04-05T21:43:14.667Z,12.00
2023-04-05T21:45:41.419Z,13.20
2023-04-05T21:48:08.219Z,13.23
2023-04-05T21:50:35.214Z,11.50
2023-04-05T21:53:02.059Z,17.38
2023-04-05T21:55:28.816Z,11.13
2023-04-05T21:57:55.644Z,9.38
2023-04-05T22:00:22.475Z,11.38
2023-04-05T22:02:49.289Z,10.32
2023-04-05T22:05:29.435Z,14.23
2023-04-05T22:08:01.301Z,10.25
2023-04-05T22:10:29.056Z,13.05
2023-04-05T22:12:56.065Z,16.92
2023-04-05T22:15:22.853Z,9.00
2023-04-05T22:17:49.707Z,10.45
2023-04-05T22:20:16.550Z,11.52
2023-04-05T22:22:43.342Z,13.65
2023-04-05T22:25:10.162Z,8.93
2023-04-05T22:27:36.985Z,11.95
2023-04-05T22:30:04.770Z,13.95
2023-04-05T22:32:31.664Z,12.65
2023-04-05T22:34:58.474Z,9.88
2023-04-05T22:37:25.458Z,11.00
2023-04-05T22:39:52.188Z,12.80
2023-04-05T22:42:18.929Z,13.93
2023-04-05T22:44:45.760Z,12.55
2023-04-05T22:47:12.571Z,12.77
2023-04-05T22:49:39.327Z,10.82
2023-04-05T22:52:06.146Z,11.05
2023-04-05T22:54:32.946Z,10.93
2023-04-05T22:56:59.665Z,12.55
2023-04-05T22:59:26.442Z,11.10
2023-04-05T23:01:53.305Z,13.13
2023-04-05T23:04:20.174Z,15.00
2023-04-05T23:06:46.920Z,10.23
2023-04-05T23:09:14.649Z,10.98
2023-04-05T23:11:41.477Z,13.07
2023-04-05T23:14:08.478Z,14.40
2023-04-05T23:16:35.578Z,13.45
2023-04-05T23:19:02.352Z,10.95
2023-04-05T23:21:29.111Z,14.43
2023-04-05T23:23:56.066Z,11.63
2023-04-05T23:26:22.883Z,12.95
2023-04-05T23:28:49.646Z,10.88
2023-04-05T23:31:16.418Z,11.18
2023-04-05T23:33:43.254Z,18.50
2023-04-05T23:36:10.613Z,12.55
2023-04-05T23:38:37.416Z,11.32
2023-04-05T23:41:04.332Z,10.32
2023-04-05T23:43:31.882Z,10.27
2023-04-05T23:45:58.653Z,12.25
2023-04-05T23:48:25.392Z,11.38
2023-04-05T23:50:52.162Z,10.68
2023-04-05T23:53:18.904Z,17.30
2023-04-05T23:55:45.735Z,17.10
2023-04-05T23:58:12.582Z,13.80
